sensor_id;sensor_type;location;lat;lon;timestamp;P1;durP1;ratioP1;P2;durP2;ratioP2
60492;SDS011;46341;51.290;-2.474;2023-03-11T00:00:30;30.03;;;22.73;;
60492;SDS011;46341;51.290;-2.474;2023-03-11T00:02:58;27.30;;;21.60;;
60492;SDS011;46341;51.290;-2.474;2023-03-11T00:07:51;21.35;;;19.05;;
60492;SDS011;46341;51.290;-2.474;2023-03-11T00:10:19;20.65;;;18.45;;
60492;SDS011;46341;51.290;-2.474;2023-03-11T00:15:12;27.67;;;19.58;;
60492;SDS011;46341;51.290;-2.474;2023-03-11T00:17:39;23.50;;;19.30;;
60492;SDS011;46341;51.290;-2.474;2023-03-11T00:20:06;22.02;;;19.40;;
60492;SDS011;46341;51.290;-2.474;2023-03-11T00:24:59;23.60;;;19.60;;
60492;SDS011;46341;51.290;-2.474;2023-03-11T00:27:26;25.08;;;19.20;;
60492;SDS011;46341;51.290;-2.474;2023-03-11T00:29:52;21.98;;;19.35;;
60492;SDS011;46341;51.290;-2.474;2023-03-11T00:32:18;23.15;;;19.90;;
60492;SDS011;46341;51.290;-2.474;2023-03-11T00:34:45;22.42;;;20.02;;
60492;SDS011;46341;51.290;-2.474;2023-03-11T00:37:11;21.60;;;17.08;;
60492;SDS011;46341;51.290;-2.474;2023-03-11T00:39:37;19.83;;;17.73;;
60492;SDS011;46341;51.290;-2.474;2023-03-11T00:42:04;21.25;;;17.38;;
60492;SDS011;46341;51.290;-2.474;2023-03-11T00:44:30;20.05;;;16.95;;
60492;SDS011;46341;51.290;-2.474;2023-03-11T00:46:56;24.98;;;20.52;;
60492;SDS011;46341;51.290;-2.474;2023-03-11T00:49:23;26.85;;;20.85;;
60492;SDS011;46341;51.290;-2.474;2023-03-11T00:51:49;24.50;;;21.20;;
60492;SDS011;46341;51.290;-2.474;2023-03-11T00:54:15;19.95;;;17.90;;
60492;SDS011;46341;51.290;-2.474;2023-03-11T00:56:42;23.38;;;19.65;;
60492;SDS011;46341;51.290;-2.474;2023-03-11T00:59:08;20.00;;;17.40;;
60492;SDS011;46341;51.290;-2.474;2023-03-11T01:01:35;21.10;;;17.85;;
60492;SDS011;46341;51.290;-2.474;2023-03-11T01:04:01;18.55;;;16.65;;
60492;SDS011;46341;51.290;-2.474;2023-03-11T01:06:28;19.48;;;17.20;;
60492;SDS011;46341;51.290;-2.474;2023-03-11T01:09:09;21.60;;;18.30;;
60492;SDS011;46341;51.290;-2.474;2023-03-11T01:11:36;20.65;;;17.95;;
60492;SDS011;46341;51.290;-2.474;2023-03-11T01:14:02;20.85;;;17.50;;
60492;SDS011;46341;51.290;-2.474;2023-03-11T01:16:29;19.90;;;17.75;;
60492;SDS011;46341;51.290;-2.474;2023-03-11T01:18:55;20.35;;;17.58;;
60492;SDS011;46341;51.290;-2.474;2023-03-11T01:21:22;19.13;;;17.02;;
60492;SDS011;46341;51.290;-2.474;2023-03-11T01:23:48;18.88;;;16.73;;
60492;SDS011;46341;51.290;-2.474;2023-03-11T01:26:14;19.55;;;16.80;;
60492;SDS011;46341;51.290;-2.474;2023-03-11T01:28:41;19.60;;;16.50;;
60492;SDS011;46341;51.290;-2.474;2023-03-11T01:31:08;20.92;;;17.40;;
60492;SDS011;46341;51.290;-2.474;2023-03-11T01:33:34;20.13;;;16.90;;
60492;SDS011;46341;51.290;-2.474;2023-03-11T01:36:01;20.85;;;17.52;;
60492;SDS011;46341;51.290;-2.474;2023-03-11T01:38:27;19.50;;;17.38;;
60492;SDS011;46341;51.290;-2.474;2023-03-11T01:40:54;21.50;;;17.25;;
60492;SDS011;46341;51.290;-2.474;2023-03-11T01:48:37;20.50;;;18.45;;
60492;SDS011;46341;51.290;-2.474;2023-03-11T01:51:04;20.63;;;18.27;;
60492;SDS011;46341;51.290;-2.474;2023-03-11T01:53:31;20.83;;;18.63;;
60492;SDS011;46341;51.290;-2.474;2023-03-11T01:55:58;20.55;;;18.35;;
60492;SDS011;46341;51.290;-2.474;2023-03-11T01:58:25;20.73;;;18.27;;
60492;SDS011;46341;51.290;-2.474;2023-03-11T02:00:53;19.95;;;17.58;;
60492;SDS011;46341;51.290;-2.474;2023-03-11T02:03:21;21.33;;;18.13;;
60492;SDS011;46341;51.290;-2.474;2023-03-11T02:05:51;18.38;;;16.48;;
60492;SDS011;46341;51.290;-2.474;2023-03-11T02:08:18;18.80;;;16.83;;
60492;SDS011;46341;51.290;-2.474;2023-03-11T02:10:44;18.75;;;16.75;;
60492;SDS011;46341;51.290;-2.474;2023-03-11T02:13:11;18.30;;;16.40;;
60492;SDS011;46341;51.290;-2.474;2023-03-11T02:15:38;19.38;;;17.15;;
60492;SDS011;46341;51.290;-2.474;2023-03-11T02:18:06;17.98;;;16.08;;
60492;SDS011;46341;51.290;-2.474;2023-03-11T02:20:44;18.95;;;16.98;;
60492;SDS011;46341;51.290;-2.474;2023-03-11T02:23:12;20.27;;;16.88;;
60492;SDS011;46341;51.290;-2.474;2023-03-11T02:25:53;19.08;;;17.17;;
60492;SDS011;46341;51.290;-2.474;2023-03-11T02:28:23;18.45;;;16.55;;
60492;SDS011;46341;51.290;-2.474;2023-03-11T02:30:50;19.38;;;16.20;;
60492;SDS011;46341;51.290;-2.474;2023-03-11T02:33:17;18.23;;;16.33;;
60492;SDS011;46341;51.290;-2.474;2023-03-11T02:35:43;17.10;;;15.32;;
60492;SDS011;46341;51.290;-2.474;2023-03-11T02:38:10;18.40;;;16.27;;
60492;SDS011;46341;51.290;-2.474;2023-03-11T02:40:45;18.38;;;16.23;;
60492;SDS011;46341;51.290;-2.474;2023-03-11T02:43:14;17.95;;;16.15;;
60492;SDS011;46341;51.290;-2.474;2023-03-11T02:45:42;17.30;;;15.43;;
60492;SDS011;46341;51.290;-2.474;2023-03-11T02:48:09;18.13;;;16.17;;
60492;SDS011;46341;51.290;-2.474;2023-03-11T02:50:36;17.55;;;15.60;;
60492;SDS011;46341;51.290;-2.474;2023-03-11T02:53:04;17.95;;;15.88;;
60492;SDS011;46341;51.290;-2.474;2023-03-11T02:55:30;16.98;;;15.18;;
60492;SDS011;46341;51.290;-2.474;2023-03-11T02:57:57;17.38;;;14.55;;
60492;SDS011;46341;51.290;-2.474;2023-03-11T03:00:23;17.67;;;15.52;;
60492;SDS011;46341;51.290;-2.474;2023-03-11T03:02:50;19.65;;;16.83;;
60492;SDS011;46341;51.290;-2.474;2023-03-11T03:05:17;19.58;;;15.80;;
60492;SDS011;46341;51.290;-2.474;2023-03-11T03:07:49;17.08;;;15.27;;
60492;SDS011;46341;51.290;-2.474;2023-03-11T03:10:15;18.08;;;15.98;;
60492;SDS011;46341;51.290;-2.474;2023-03-11T03:12:42;18.60;;;16.60;;
60492;SDS011;46341;51.290;-2.474;2023-03-11T03:15:09;18.25;;;16.33;;
60492;SDS011;46341;51.290;-2.474;2023-03-11T03:17:36;18.83;;;16.92;;
60492;SDS011;46341;51.290;-2.474;2023-03-11T03:20:02;18.88;;;16.98;;
60492;SDS011;46341;51.290;-2.474;2023-03-11T03:22:32;18.98;;;16.88;;
60492;SDS011;46341;51.290;-2.474;2023-03-11T03:24:58;18.98;;;16.95;;
60492;SDS011;46341;51.290;-2.474;2023-03-11T03:27:25;16.52;;;14.80;;
60492;SDS011;46341;51.290;-2.474;2023-03-11T03:29:51;18.75;;;16.25;;
60492;SDS011;46341;51.290;-2.474;2023-03-11T03:32:17;19.35;;;16.42;;
60492;SDS011;46341;51.290;-2.474;2023-03-11T03:34:44;17.77;;;15.48;;
60492;SDS011;46341;51.290;-2.474;2023-03-11T03:37:10;17.23;;;15.55;;
60492;SDS011;46341;51.290;-2.474;2023-03-11T03:39:36;17.83;;;15.73;;
60492;SDS011;46341;51.290;-2.474;2023-03-11T03:42:03;17.80;;;16.00;;
60492;SDS011;46341;51.290;-2.474;2023-03-11T03:44:29;17.83;;;15.82;;
60492;SDS011;46341;51.290;-2.474;2023-03-11T03:46:56;21.13;;;15.68;;
60492;SDS011;46341;51.290;-2.474;2023-03-11T03:49:22;17.25;;;15.45;;
60492;SDS011;46341;51.290;-2.474;2023-03-11T03:51:48;18.90;;;15.68;;
60492;SDS011;46341;51.290;-2.474;2023-03-11T03:54:15;17.05;;;15.20;;
60492;SDS011;46341;51.290;-2.474;2023-03-11T03:56:41;16.90;;;15.10;;
60492;SDS011;46341;51.290;-2.474;2023-03-11T03:59:07;16.75;;;14.98;;
60492;SDS011;46341;51.290;-2.474;2023-03-11T04:01:34;16.65;;;14.40;;
60492;SDS011;46341;51.290;-2.474;2023-03-11T04:04:00;16.17;;;14.45;;
60492;SDS011;46341;51.290;-2.474;2023-03-11T04:06:27;16.25;;;14.65;;
60492;SDS011;46341;51.290;-2.474;2023-03-11T04:08:53;16.40;;;14.70;;
60492;SDS011;46341;51.290;-2.474;2023-03-11T04:11:20;17.73;;;14.73;;
60492;SDS011;46341;51.290;-2.474;2023-03-11T04:13:47;16.35;;;14.65;;
60492;SDS011;46341;51.290;-2.474;2023-03-11T04:16:15;16.90;;;14.82;;
60492;SDS011;46341;51.290;-2.474;2023-03-11T04:18:42;18.20;;;14.73;;
60492;SDS011;46341;51.290;-2.474;2023-03-11T04:21:08;17.05;;;14.70;;
60492;SDS011;46341;51.290;-2.474;2023-03-11T04:23:34;17.17;;;15.07;;
60492;SDS011;46341;51.290;-2.474;2023-03-11T04:26:01;16.60;;;14.88;;
60492;SDS011;46341;51.290;-2.474;2023-03-11T04:28:27;17.20;;;15.20;;
60492;SDS011;46341;51.290;-2.474;2023-03-11T04:30:54;16.65;;;14.98;;
60492;SDS011;46341;51.290;-2.474;2023-03-11T04:33:20;16.15;;;14.50;;
60492;SDS011;46341;51.290;-2.474;2023-03-11T04:35:47;16.08;;;14.38;;
60492;SDS011;46341;51.290;-2.474;2023-03-11T04:38:13;15.98;;;14.30;;
60492;SDS011;46341;51.290;-2.474;2023-03-11T04:40:39;13.57;;;12.23;;
60492;SDS011;46341;51.290;-2.474;2023-03-11T04:43:06;14.70;;;12.82;;
60492;SDS011;46341;51.290;-2.474;2023-03-11T04:45:32;14.02;;;12.55;;
60492;SDS011;46341;51.290;-2.474;2023-03-11T04:47:58;16.10;;;13.02;;
60492;SDS011;46341;51.290;-2.474;2023-03-11T04:50:25;15.35;;;13.35;;
60492;SDS011;46341;51.290;-2.474;2023-03-11T04:52:51;13.77;;;12.05;;
60492;SDS011;46341;51.290;-2.474;2023-03-11T04:55:18;14.60;;;12.10;;
60492;SDS011;46341;51.290;-2.474;2023-03-11T04:57:44;14.48;;;12.98;;
60492;SDS011;46341;51.290;-2.474;2023-03-11T05:00:11;15.75;;;12.45;;
60492;SDS011;46341;51.290;-2.474;2023-03-11T05:02:38;14.68;;;12.38;;
60492;SDS011;46341;51.290;-2.474;2023-03-11T05:05:05;14.15;;;12.57;;
60492;SDS011;46341;51.290;-2.474;2023-03-11T05:07:31;13.77;;;12.00;;
60492;SDS011;46341;51.290;-2.474;2023-03-11T05:09:58;12.93;;;11.57;;
60492;SDS011;46341;51.290;-2.474;2023-03-11T05:12:24;15.15;;;11.82;;
60492;SDS011;46341;51.290;-2.474;2023-03-11T05:14:51;13.30;;;10.32;;
60492;SDS011;46341;51.290;-2.474;2023-03-11T05:17:17;10.82;;;9.63;;
60492;SDS011;46341;51.290;-2.474;2023-03-11T05:19:45;11.70;;;9.32;;
60492;SDS011;46341;51.290;-2.474;2023-03-11T05:22:11;9.98;;;8.65;;
60492;SDS011;46341;51.290;-2.474;2023-03-11T05:24:38;10.95;;;9.77;;
60492;SDS011;46341;51.290;-2.474;2023-03-11T05:27:04;9.77;;;8.35;;
60492;SDS011;46341;51.290;-2.474;2023-03-11T05:29:31;11.60;;;9.32;;
60492;SDS011;46341;51.290;-2.474;2023-03-11T05:31:57;12.07;;;9.02;;
60492;SDS011;46341;51.290;-2.474;2023-03-11T05:34:23;10.30;;;9.13;;
60492;SDS011;46341;51.290;-2.474;2023-03-11T05:36:50;11.10;;;9.05;;
60492;SDS011;46341;51.290;-2.474;2023-03-11T05:39:16;10.32;;;8.93;;
60492;SDS011;46341;51.290;-2.474;2023-03-11T05:41:43;9.55;;;8.55;;
60492;SDS011;46341;51.290;-2.474;2023-03-11T05:44:09;12.55;;;8.90;;
60492;SDS011;46341;51.290;-2.474;2023-03-11T05:46:35;11.60;;;8.95;;
60492;SDS011;46341;51.290;-2.474;2023-03-11T05:49:02;9.60;;;8.63;;
60492;SDS011;46341;51.290;-2.474;2023-03-11T05:51:28;9.05;;;8.15;;
60492;SDS011;46341;51.290;-2.474;2023-03-11T05:53:55;10.18;;;8.98;;
60492;SDS011;46341;51.290;-2.474;2023-03-11T05:56:22;10.10;;;8.50;;
60492;SDS011;46341;51.290;-2.474;2023-03-11T05:58:48;11.90;;;8.60;;
60492;SDS011;46341;51.290;-2.474;2023-03-11T06:01:15;8.88;;;7.97;;
60492;SDS011;46341;51.290;-2.474;2023-03-11T06:03:42;10.32;;;8.30;;
60492;SDS011;46341;51.290;-2.474;2023-03-11T06:06:10;10.85;;;8.70;;
60492;SDS011;46341;51.290;-2.474;2023-03-11T06:08:37;9.57;;;8.57;;
60492;SDS011;46341;51.290;-2.474;2023-03-11T06:11:04;9.02;;;7.80;;
60492;SDS011;46341;51.290;-2.474;2023-03-11T06:13:31;10.65;;;8.20;;
60492;SDS011;46341;51.290;-2.474;2023-03-11T06:15:57;10.43;;;7.70;;
60492;SDS011;46341;51.290;-2.474;2023-03-11T06:18:24;10.38;;;7.05;;
60492;SDS011;46341;51.290;-2.474;2023-03-11T06:20:56;9.63;;;7.80;;
60492;SDS011;46341;51.290;-2.474;2023-03-11T06:23:22;9.13;;;8.23;;
60492;SDS011;46341;51.290;-2.474;2023-03-11T06:25:56;11.93;;;8.48;;
60492;SDS011;46341;51.290;-2.474;2023-03-11T06:28:22;11.40;;;7.97;;
60492;SDS011;46341;51.290;-2.474;2023-03-11T06:30:49;8.60;;;7.70;;
60492;SDS011;46341;51.290;-2.474;2023-03-11T06:33:15;10.27;;;7.40;;
60492;SDS011;46341;51.290;-2.474;2023-03-11T06:35:41;10.50;;;8.00;;
60492;SDS011;46341;51.290;-2.474;2023-03-11T06:38:08;9.77;;;7.00;;
60492;SDS011;46341;51.290;-2.474;2023-03-11T06:40:35;10.52;;;7.25;;
60492;SDS011;46341;51.290;-2.474;2023-03-11T06:43:02;9.77;;;7.20;;
60492;SDS011;46341;51.290;-2.474;2023-03-11T06:45:28;9.35;;;7.32;;
60492;SDS011;46341;51.290;-2.474;2023-03-11T06:47:55;8.93;;;6.97;;
60492;SDS011;46341;51.290;-2.474;2023-03-11T06:50:21;8.32;;;6.55;;
60492;SDS011;46341;51.290;-2.474;2023-03-11T06:52:49;9.68;;;6.97;;
60492;SDS011;46341;51.290;-2.474;2023-03-11T06:55:15;7.60;;;6.63;;
60492;SDS011;46341;51.290;-2.474;2023-03-11T06:57:41;12.23;;;8.15;;
60492;SDS011;46341;51.290;-2.474;2023-03-11T07:00:10;11.40;;;7.55;;
60492;SDS011;46341;51.290;-2.474;2023-03-11T07:02:39;8.20;;;6.82;;
60492;SDS011;46341;51.290;-2.474;2023-03-11T07:05:05;10.13;;;6.75;;
60492;SDS011;46341;51.290;-2.474;2023-03-11T07:07:32;9.48;;;6.65;;
60492;SDS011;46341;51.290;-2.474;2023-03-11T07:09:59;6.95;;;6.20;;
60492;SDS011;46341;51.290;-2.474;2023-03-11T07:12:25;9.75;;;6.25;;
60492;SDS011;46341;51.290;-2.474;2023-03-11T07:14:55;9.18;;;7.32;;
60492;SDS011;46341;51.290;-2.474;2023-03-11T07:17:21;8.38;;;7.00;;
60492;SDS011;46341;51.290;-2.474;2023-03-11T07:19:48;10.52;;;7.85;;
60492;SDS011;46341;51.290;-2.474;2023-03-11T07:22:15;12.55;;;9.43;;
60492;SDS011;46341;51.290;-2.474;2023-03-11T07:24:45;14.13;;;9.70;;
60492;SDS011;46341;51.290;-2.474;2023-03-11T07:27:12;11.60;;;9.48;;
60492;SDS011;46341;51.290;-2.474;2023-03-11T07:29:38;11.02;;;8.45;;
60492;SDS011;46341;51.290;-2.474;2023-03-11T07:32:05;12.65;;;9.13;;
60492;SDS011;46341;51.290;-2.474;2023-03-11T07:34:32;8.95;;;7.47;;
60492;SDS011;46341;51.290;-2.474;2023-03-11T07:36:59;10.48;;;6.22;;
60492;SDS011;46341;51.290;-2.474;2023-03-11T07:39:25;6.90;;;6.15;;
60492;SDS011;46341;51.290;-2.474;2023-03-11T07:41:52;8.13;;;6.18;;
60492;SDS011;46341;51.290;-2.474;2023-03-11T07:44:18;10.30;;;5.82;;
60492;SDS011;46341;51.290;-2.474;2023-03-11T07:46:45;6.70;;;5.68;;
60492;SDS011;46341;51.290;-2.474;2023-03-11T07:49:11;8.10;;;5.93;;
60492;SDS011;46341;51.290;-2.474;2023-03-11T07:51:39;8.67;;;5.87;;
60492;SDS011;46341;51.290;-2.474;2023-03-11T07:54:10;6.72;;;4.85;;
60492;SDS011;46341;51.290;-2.474;2023-03-11T07:56:37;10.25;;;5.57;;
60492;SDS011;46341;51.290;-2.474;2023-03-11T07:59:04;9.80;;;5.72;;
60492;SDS011;46341;51.290;-2.474;2023-03-11T08:01:31;10.18;;;4.82;;
60492;SDS011;46341;51.290;-2.474;2023-03-11T08:04:07;8.02;;;5.18;;
60492;SDS011;46341;51.290;-2.474;2023-03-11T08:06:34;6.30;;;4.50;;
60492;SDS011;46341;51.290;-2.474;2023-03-11T08:09:03;7.80;;;4.38;;
60492;SDS011;46341;51.290;-2.474;2023-03-11T08:11:30;8.63;;;4.95;;
60492;SDS011;46341;51.290;-2.474;2023-03-11T08:13:56;5.65;;;4.53;;
60492;SDS011;46341;51.290;-2.474;2023-03-11T08:16:23;6.20;;;4.90;;
60492;SDS011;46341;51.290;-2.474;2023-03-11T08:18:50;7.10;;;4.80;;
60492;SDS011;46341;51.290;-2.474;2023-03-11T08:21:18;8.38;;;4.68;;
60492;SDS011;46341;51.290;-2.474;2023-03-11T08:23:44;7.78;;;4.95;;
60492;SDS011;46341;51.290;-2.474;2023-03-11T08:26:12;11.18;;;4.90;;
60492;SDS011;46341;51.290;-2.474;2023-03-11T08:28:39;7.85;;;5.18;;
60492;SDS011;46341;51.290;-2.474;2023-03-11T08:31:19;7.22;;;4.78;;
60492;SDS011;46341;51.290;-2.474;2023-03-11T08:33:47;7.00;;;4.57;;
60492;SDS011;46341;51.290;-2.474;2023-03-11T08:36:15;9.05;;;5.40;;
60492;SDS011;46341;51.290;-2.474;2023-03-11T08:38:42;8.68;;;5.53;;
60492;SDS011;46341;51.290;-2.474;2023-03-11T08:41:09;7.82;;;5.70;;
60492;SDS011;46341;51.290;-2.474;2023-03-11T08:43:35;7.20;;;5.35;;
60492;SDS011;46341;51.290;-2.474;2023-03-11T08:46:02;7.97;;;5.50;;
60492;SDS011;46341;51.290;-2.474;2023-03-11T08:48:29;7.53;;;4.80;;
60492;SDS011;46341;51.290;-2.474;2023-03-11T08:50:56;8.23;;;5.15;;
60492;SDS011;46341;51.290;-2.474;2023-03-11T08:53:22;5.63;;;5.03;;
60492;SDS011;46341;51.290;-2.474;2023-03-11T08:55:49;9.88;;;5.55;;
60492;SDS011;46341;51.290;-2.474;2023-03-11T08:58:15;8.45;;;5.68;;
60492;SDS011;46341;51.290;-2.474;2023-03-11T09:00:42;8.13;;;5.20;;
60492;SDS011;46341;51.290;-2.474;2023-03-11T09:03:08;8.02;;;5.43;;
60492;SDS011;46341;51.290;-2.474;2023-03-11T09:05:35;5.65;;;5.10;;
60492;SDS011;46341;51.290;-2.474;2023-03-11T09:08:02;9.35;;;5.45;;
60492;SDS011;46341;51.290;-2.474;2023-03-11T09:10:31;9.13;;;5.95;;
60492;SDS011;46341;51.290;-2.474;2023-03-11T09:12:57;10.43;;;6.47;;
60492;SDS011;46341;51.290;-2.474;2023-03-11T09:15:23;10.02;;;5.82;;
60492;SDS011;46341;51.290;-2.474;2023-03-11T09:17:50;9.00;;;5.70;;
60492;SDS011;46341;51.290;-2.474;2023-03-11T09:20:16;8.40;;;5.20;;
60492;SDS011;46341;51.290;-2.474;2023-03-11T09:22:43;7.72;;;4.88;;
60492;SDS011;46341;51.290;-2.474;2023-03-11T09:25:10;7.68;;;5.07;;
60492;SDS011;46341;51.290;-2.474;2023-03-11T09:27:37;7.55;;;4.97;;
60492;SDS011;46341;51.290;-2.474;2023-03-11T09:30:03;8.48;;;4.90;;
60492;SDS011;46341;51.290;-2.474;2023-03-11T09:32:30;8.15;;;5.40;;
60492;SDS011;46341;51.290;-2.474;2023-03-11T09:34:56;15.27;;;6.10;;
60492;SDS011;46341;51.290;-2.474;2023-03-11T09:37:22;10.20;;;5.35;;
60492;SDS011;46341;51.290;-2.474;2023-03-11T09:39:49;7.32;;;5.40;;
60492;SDS011;46341;51.290;-2.474;2023-03-11T09:42:18;6.35;;;4.80;;
60492;SDS011;46341;51.290;-2.474;2023-03-11T09:45:20;6.00;;;4.65;;
60492;SDS011;46341;51.290;-2.474;2023-03-11T10:00:44;6.40;;;4.50;;
60492;SDS011;46341;51.290;-2.474;2023-03-11T10:03:14;6.63;;;4.40;;
60492;SDS011;46341;51.290;-2.474;2023-03-11T10:05:42;6.28;;;3.90;;
60492;SDS011;46341;51.290;-2.474;2023-03-11T10:08:18;7.47;;;4.38;;
60492;SDS011;46341;51.290;-2.474;2023-03-11T10:10:49;8.13;;;4.32;;
60492;SDS011;46341;51.290;-2.474;2023-03-11T10:15:54;5.90;;;3.80;;
60492;SDS011;46341;51.290;-2.474;2023-03-11T10:18:42;5.95;;;4.03;;
60492;SDS011;46341;51.290;-2.474;2023-03-11T10:21:18;6.30;;;3.90;;
60492;SDS011;46341;51.290;-2.474;2023-03-11T10:36:20;7.03;;;3.30;;
60492;SDS011;46341;51.290;-2.474;2023-03-11T10:38:50;3.83;;;2.60;;
60492;SDS011;46341;51.290;-2.474;2023-03-11T10:41:19;3.47;;;2.03;;
60492;SDS011;46341;51.290;-2.474;2023-03-11T10:43:51;2.72;;;2.20;;
60492;SDS011;46341;51.290;-2.474;2023-03-11T10:46:23;4.65;;;2.08;;
60492;SDS011;46341;51.290;-2.474;2023-03-11T10:48:51;2.63;;;1.77;;
60492;SDS011;46341;51.290;-2.474;2023-03-11T10:51:18;3.05;;;1.77;;
60492;SDS011;46341;51.290;-2.474;2023-03-11T10:53:49;3.75;;;1.85;;
60492;SDS011;46341;51.290;-2.474;2023-03-11T10:56:26;5.38;;;2.40;;
60492;SDS011;46341;51.290;-2.474;2023-03-11T10:58:53;5.28;;;2.85;;
60492;SDS011;46341;51.290;-2.474;2023-03-11T11:01:20;4.70;;;2.50;;
60492;SDS011;46341;51.290;-2.474;2023-03-11T11:03:47;2.67;;;1.77;;
60492;SDS011;46341;51.290;-2.474;2023-03-11T11:08:44;1.95;;;1.65;;
60492;SDS011;46341;51.290;-2.474;2023-03-11T11:11:21;4.32;;;1.58;;
60492;SDS011;46341;51.290;-2.474;2023-03-11T11:13:57;2.77;;;1.60;;
60492;SDS011;46341;51.290;-2.474;2023-03-11T11:16:25;4.00;;;1.90;;
60492;SDS011;46341;51.290;-2.474;2023-03-11T11:21:28;3.22;;;1.45;;
60492;SDS011;46341;51.290;-2.474;2023-03-11T11:26:31;3.63;;;1.58;;
60492;SDS011;46341;51.290;-2.474;2023-03-11T11:31:36;2.05;;;1.00;;
60492;SDS011;46341;51.290;-2.474;2023-03-11T11:34:03;2.78;;;1.15;;
60492;SDS011;46341;51.290;-2.474;2023-03-11T11:36:48;2.78;;;1.10;;
60492;SDS011;46341;51.290;-2.474;2023-03-11T11:39:15;4.28;;;1.30;;
60492;SDS011;46341;51.290;-2.474;2023-03-11T11:41:44;2.83;;;1.20;;
60492;SDS011;46341;51.290;-2.474;2023-03-11T11:44:11;4.53;;;1.30;;
60492;SDS011;46341;51.290;-2.474;2023-03-11T11:49:20;3.25;;;1.20;;
60492;SDS011;46341;51.290;-2.474;2023-03-11T11:51:52;2.58;;;1.40;;
60492;SDS011;46341;51.290;-2.474;2023-03-11T11:55:04;3.28;;;1.10;;
60492;SDS011;46341;51.290;-2.474;2023-03-11T11:57:10;4.47;;;1.20;;
60492;SDS011;46341;51.290;-2.474;2023-03-11T11:59:37;3.30;;;1.50;;
60492;SDS011;46341;51.290;-2.474;2023-03-11T12:04:56;3.10;;;1.02;;
60492;SDS011;46341;51.290;-2.474;2023-03-11T12:15:38;3.70;;;0.82;;
60492;SDS011;46341;51.290;-2.474;2023-03-11T12:18:08;2.63;;;0.80;;
60492;SDS011;46341;51.290;-2.474;2023-03-11T12:20:37;2.35;;;0.70;;
60492;SDS011;46341;51.290;-2.474;2023-03-11T12:23:10;2.20;;;0.60;;
60492;SDS011;46341;51.290;-2.474;2023-03-11T12:25:44;1.95;;;0.88;;
60492;SDS011;46341;51.290;-2.474;2023-03-11T12:28:19;2.70;;;0.77;;
60492;SDS011;46341;51.290;-2.474;2023-03-11T12:30:48;2.85;;;1.00;;
60492;SDS011;46341;51.290;-2.474;2023-03-11T12:33:22;2.03;;;0.93;;
60492;SDS011;46341;51.290;-2.474;2023-03-11T12:35:53;4.13;;;1.17;;
60492;SDS011;46341;51.290;-2.474;2023-03-11T12:40:57;2.47;;;0.98;;
60492;SDS011;46341;51.290;-2.474;2023-03-11T12:46:03;1.65;;;0.90;;
60492;SDS011;46341;51.290;-2.474;2023-03-11T12:48:34;2.95;;;1.00;;
60492;SDS011;46341;51.290;-2.474;2023-03-11T12:51:01;3.75;;;1.08;;
60492;SDS011;46341;51.290;-2.474;2023-03-11T12:53:41;4.32;;;1.20;;
60492;SDS011;46341;51.290;-2.474;2023-03-11T12:58:48;2.47;;;1.20;;
60492;SDS011;46341;51.290;-2.474;2023-03-11T13:01:25;2.38;;;1.33;;
60492;SDS011;46341;51.290;-2.474;2023-03-11T13:06:35;3.08;;;1.17;;
60492;SDS011;46341;51.290;-2.474;2023-03-11T13:09:10;4.78;;;1.40;;
60492;SDS011;46341;51.290;-2.474;2023-03-11T13:11:43;2.38;;;1.40;;
60492;SDS011;46341;51.290;-2.474;2023-03-11T13:16:39;1.70;;;1.35;;
60492;SDS011;46341;51.290;-2.474;2023-03-11T13:19:32;4.15;;;1.45;;
60492;SDS011;46341;51.290;-2.474;2023-03-11T13:21:53;2.97;;;1.67;;
60492;SDS011;46341;51.290;-2.474;2023-03-11T13:32:16;4.38;;;1.83;;
60492;SDS011;46341;51.290;-2.474;2023-03-11T13:35:09;4.63;;;1.67;;
60492;SDS011;46341;51.290;-2.474;2023-03-11T13:40:28;3.40;;;1.80;;
60492;SDS011;46341;51.290;-2.474;2023-03-11T13:42:53;3.85;;;2.00;;
60492;SDS011;46341;51.290;-2.474;2023-03-11T13:45:24;3.70;;;1.85;;
60492;SDS011;46341;51.290;-2.474;2023-03-11T13:47:53;3.55;;;1.80;;
60492;SDS011;46341;51.290;-2.474;2023-03-11T13:50:35;3.53;;;2.00;;
60492;SDS011;46341;51.290;-2.474;2023-03-11T13:53:02;4.32;;;2.25;;
60492;SDS011;46341;51.290;-2.474;2023-03-11T13:55:43;7.05;;;2.70;;
60492;SDS011;46341;51.290;-2.474;2023-03-11T13:58:15;4.20;;;2.53;;
60492;SDS011;46341;51.290;-2.474;2023-03-11T14:00:46;2.50;;;2.30;;
60492;SDS011;46341;51.290;-2.474;2023-03-11T14:03:13;2.97;;;2.53;;
60492;SDS011;46341;51.290;-2.474;2023-03-11T14:05:44;2.95;;;2.40;;
60492;SDS011;46341;51.290;-2.474;2023-03-11T14:10:37;4.05;;;2.38;;
60492;SDS011;46341;51.290;-2.474;2023-03-11T14:13:14;4.80;;;2.80;;
60492;SDS011;46341;51.290;-2.474;2023-03-11T14:16:01;4.57;;;2.65;;
60492;SDS011;46341;51.290;-2.474;2023-03-11T14:18:38;3.95;;;3.22;;
60492;SDS011;46341;51.290;-2.474;2023-03-11T14:21:06;6.32;;;2.50;;
60492;SDS011;46341;51.290;-2.474;2023-03-11T14:23:38;6.10;;;2.20;;
60492;SDS011;46341;51.290;-2.474;2023-03-11T14:26:06;5.32;;;2.38;;
60492;SDS011;46341;51.290;-2.474;2023-03-11T14:31:00;3.78;;;2.33;;
60492;SDS011;46341;51.290;-2.474;2023-03-11T14:33:27;4.22;;;2.53;;
60492;SDS011;46341;51.290;-2.474;2023-03-11T14:35:55;5.82;;;2.65;;
60492;SDS011;46341;51.290;-2.474;2023-03-11T14:38:22;4.30;;;2.80;;
60492;SDS011;46341;51.290;-2.474;2023-03-11T14:40:50;4.05;;;2.42;;
60492;SDS011;46341;51.290;-2.474;2023-03-11T14:43:20;4.20;;;2.30;;
60492;SDS011;46341;51.290;-2.474;2023-03-11T14:45:47;6.28;;;2.67;;
60492;SDS011;46341;51.290;-2.474;2023-03-11T14:50:41;5.55;;;3.08;;
60492;SDS011;46341;51.290;-2.474;2023-03-11T14:53:12;5.55;;;3.42;;
60492;SDS011;46341;51.290;-2.474;2023-03-11T14:55:56;5.55;;;3.28;;
60492;SDS011;46341;51.290;-2.474;2023-03-11T14:58:27;5.32;;;3.55;;
60492;SDS011;46341;51.290;-2.474;2023-03-11T15:01:07;3.85;;;3.45;;
60492;SDS011;46341;51.290;-2.474;2023-03-11T15:03:40;6.57;;;3.90;;
60492;SDS011;46341;51.290;-2.474;2023-03-11T15:06:19;9.65;;;4.32;;
60492;SDS011;46341;51.290;-2.474;2023-03-11T15:08:54;5.50;;;4.40;;
60492;SDS011;46341;51.290;-2.474;2023-03-11T15:11:22;6.60;;;4.80;;
60492;SDS011;46341;51.290;-2.474;2023-03-11T15:13:50;6.78;;;4.88;;
60492;SDS011;46341;51.290;-2.474;2023-03-11T15:18:47;7.35;;;5.70;;
60492;SDS011;46341;51.290;-2.474;2023-03-11T15:21:14;9.82;;;6.10;;
60492;SDS011;46341;51.290;-2.474;2023-03-11T15:23:51;8.82;;;6.00;;
60492;SDS011;46341;51.290;-2.474;2023-03-11T15:26:19;8.63;;;5.97;;
60492;SDS011;46341;51.290;-2.474;2023-03-11T15:28:45;12.48;;;6.85;;
60492;SDS011;46341;51.290;-2.474;2023-03-11T15:33:47;9.02;;;7.38;;
60492;SDS011;46341;51.290;-2.474;2023-03-11T15:36:26;9.68;;;7.60;;
60492;SDS011;46341;51.290;-2.474;2023-03-11T15:41:39;7.60;;;6.75;;
60492;SDS011;46341;51.290;-2.474;2023-03-11T15:44:16;8.65;;;7.82;;
60492;SDS011;46341;51.290;-2.474;2023-03-11T15:46:46;9.23;;;7.57;;
60492;SDS011;46341;51.290;-2.474;2023-03-11T15:49:13;9.30;;;8.40;;
60492;SDS011;46341;51.290;-2.474;2023-03-11T15:51:39;8.15;;;6.95;;
60492;SDS011;46341;51.290;-2.474;2023-03-11T15:54:05;8.77;;;7.88;;
60492;SDS011;46341;51.290;-2.474;2023-03-11T15:56:32;9.80;;;8.30;;
60492;SDS011;46341;51.290;-2.474;2023-03-11T15:58:58;8.43;;;7.70;;
60492;SDS011;46341;51.290;-2.474;2023-03-11T16:01:25;10.50;;;7.28;;
60492;SDS011;46341;51.290;-2.474;2023-03-11T16:03:54;8.25;;;7.45;;
60492;SDS011;46341;51.290;-2.474;2023-03-11T16:06:20;9.00;;;8.10;;
60492;SDS011;46341;51.290;-2.474;2023-03-11T16:08:49;10.27;;;9.13;;
60492;SDS011;46341;51.290;-2.474;2023-03-11T16:11:16;9.40;;;8.40;;
60492;SDS011;46341;51.290;-2.474;2023-03-11T16:13:43;8.68;;;7.82;;